createdAt,value
2023-04-11T00:01:04.757Z,100962.54
2023-04-11T00:05:05.662Z,100958.33
2023-04-11T00:09:00.103Z,100958.33
2023-04-11T00:13:00.778Z,100954.52
2023-04-11T00:16:58.490Z,100947.66
2023-04-11T00:20:59.044Z,100943.39
2023-04-11T00:24:56.628Z,100946.36
2023-04-11T00:28:57.359Z,100942.89
2023-04-11T00:32:52.027Z,100940.42
2023-04-11T00:36:58.608Z,100937.70
2023-04-11T00:40:58.492Z,100937.73
2023-04-11T00:44:57.534Z,100936.08
2023-04-11T00:48:46.940Z,100933.34
2023-04-11T00:52:41.650Z,100929.88
2023-04-11T00:56:31.594Z,100920.06
2023-04-11T01:00:18.710Z,100924.66
2023-04-11T01:04:06.811Z,100920.33
2023-04-11T01:07:53.312Z,100920.91
2023-04-11T01:11:41.302Z,100917.50
2023-04-11T01:15:27.878Z,100916.13
2023-04-11T01:19:16.313Z,100915.11
2023-04-11T01:23:04.795Z,100907.77
2023-04-11T01:26:52.730Z,100904.77
2023-04-11T01:30:39.924Z,100898.63
2023-04-11T01:34:28.926Z,100892.96
2023-04-11T01:38:16.465Z,100886.90
2023-04-11T01:42:03.022Z,100874.30
2023-04-11T01:46:02.601Z,100873.23
2023-04-11T01:50:06.184Z,100872.81
2023-04-11T01:54:05.754Z,100870.48
2023-04-11T01:58:08.740Z,100867.28
2023-04-11T02:02:12.824Z,100870.73
2023-04-11T02:06:16.313Z,100870.58
2023-04-11T02:10:19.661Z,100872.11
2023-04-11T02:14:22.775Z,100866.96
2023-04-11T02:18:24.648Z,100871.97
2023-04-11T02:22:27.858Z,100873.56
2023-04-11T02:26:27.690Z,100878.83
2023-04-11T02:30:41.881Z,100872.44
2023-04-11T02:34:42.825Z,100879.91
2023-04-11T02:38:46.273Z,100881.84
2023-04-11T02:42:45.637Z,100880.55
2023-04-11T02:46:49.298Z,100879.81
2023-04-11T02:50:51.831Z,100877.39
2023-04-11T02:54:55.162Z,100876.77
2023-04-11T02:58:58.117Z,100873.21
2023-04-11T03:03:02.594Z,100877.87
2023-04-11T03:06:44.907Z,100874.17
2023-04-11T03:10:47.839Z,100874.02
2023-04-11T03:14:51.744Z,100865.06
2023-04-11T03:18:52.928Z,100861.83
2023-04-11T03:22:55.670Z,100865.43
2023-04-11T03:26:57.833Z,100860.30
2023-04-11T03:31:05.781Z,100856.23
2023-04-11T03:35:07.034Z,100845.77
2023-04-11T03:39:10.686Z,100844.77
2023-04-11T03:43:10.937Z,100848.23
2023-04-11T03:47:14.449Z,100853.02
2023-04-11T03:51:14.910Z,100851.48
2023-04-11T03:55:23.002Z,100851.13
2023-04-11T03:59:25.746Z,100847.11
2023-04-11T04:03:29.272Z,100846.70
2023-04-11T04:07:34.893Z,100845.34
2023-04-11T04:11:44.909Z,100847.11
2023-04-11T04:15:56.582Z,100837.95
2023-04-11T04:19:56.963Z,100837.01
2023-04-11T04:24:07.974Z,100835.95
2023-04-11T04:28:36.776Z,100831.04
2023-04-11T04:32:39.931Z,100836.51
2023-04-11T04:36:59.118Z,100840.88
2023-04-11T04:41:09.466Z,100834.91
2023-04-11T04:45:12.092Z,100832.75
2023-04-11T04:49:17.083Z,100834.09
2023-04-11T04:53:18.802Z,100834.88
2023-04-11T04:57:25.506Z,100834.64
2023-04-11T05:01:30.210Z,100840.29
2023-04-11T05:05:34.989Z,100833.40
2023-04-11T05:09:37.068Z,100829.91
2023-04-11T05:13:52.042Z,100823.09
2023-04-11T05:17:55.803Z,100817.64
2023-04-11T05:22:00.052Z,100821.56
2023-04-11T05:26:06.045Z,100816.96
2023-04-11T05:30:09.733Z,100818.66
2023-04-11T05:34:13.070Z,100812.27
2023-04-11T05:38:17.107Z,100805.77
2023-04-11T05:42:16.980Z,100800.41
2023-04-11T05:46:24.879Z,100793.67
2023-04-11T05:50:24.953Z,100790.00
2023-04-11T05:54:28.647Z,100789.29
2023-04-11T05:58:28.839Z,100786.16
2023-04-11T06:02:31.407Z,100786.63
2023-04-11T06:06:36.410Z,100786.05
2023-04-11T06:10:39.261Z,100773.90
2023-04-11T06:14:45.174Z,100779.17
2023-04-11T06:18:48.061Z,100780.25
2023-04-11T06:22:31.709Z,100784.29
2023-04-11T06:26:31.125Z,100780.59
2023-04-11T06:30:34.245Z,100785.30
2023-04-11T06:34:35.294Z,100783.77
2023-04-11T06:38:38.662Z,100783.69
2023-04-11T06:42:36.909Z,100784.40
2023-04-11T06:46:38.276Z,100775.33
2023-04-11T06:50:40.388Z,100767.44
2023-04-11T06:54:40.755Z,100761.27
2023-04-11T06:58:38.248Z,100766.60
2023-04-11T07:02:39.014Z,100766.50
2023-04-11T07:06:36.512Z,100764.20
2023-04-11T07:10:37.456Z,100758.16
2023-04-11T07:14:42.787Z,100754.52
2023-04-11T07:18:44.913Z,100753.58
2023-04-11T07:22:37.371Z,100752.89
2023-04-11T07:26:38.103Z,100748.27
2023-04-11T07:30:35.458Z,100743.30
2023-04-11T07:34:37.340Z,100743.29
2023-04-11T07:38:34.590Z,100739.48
2023-04-11T07:42:36.234Z,100733.83
2023-04-11T07:46:33.290Z,100730.88
2023-04-11T07:50:33.834Z,100727.64
2023-04-11T07:54:30.553Z,100715.26
2023-04-11T07:58:30.719Z,100709.83
2023-04-11T08:02:27.810Z,100705.52
2023-04-11T08:06:28.241Z,100706.00
2023-04-11T08:10:25.414Z,100698.36
2023-04-11T08:14:26.140Z,100690.19
2023-04-11T08:18:23.851Z,100676.52
2023-04-11T08:22:24.412Z,100664.13
2023-04-11T08:26:21.601Z,100667.11
2023-04-11T08:30:25.677Z,100661.61
2023-04-11T08:34:23.339Z,100653.97
2023-04-11T08:38:23.543Z,100652.77
2023-04-11T08:42:09.782Z,100648.67
2023-04-11T08:45:56.092Z,100642.59
2023-04-11T08:49:42.328Z,100640.41
2023-04-11T08:53:29.017Z,100630.79
2023-04-11T08:57:15.189Z,100625.77
2023-04-11T09:01:07.600Z,100617.59
2023-04-11T09:05:07.906Z,100618.05
2023-04-11T09:09:05.225Z,100607.41
2023-04-11T09:13:06.136Z,100601.51
2023-04-11T09:16:59.227Z,100598.48
2023-04-11T09:21:04.894Z,100591.69
2023-04-11T09:24:59.456Z,100590.19
2023-04-11T09:29:00.419Z,100583.67
2023-04-11T09:32:57.624Z,100574.66
2023-04-11T09:36:58.236Z,100574.02
2023-04-11T09:40:55.558Z,100564.67
2023-04-11T09:44:57.558Z,100559.52
2023-04-11T09:48:54.321Z,100554.52
2023-04-11T09:52:57.660Z,100547.11
2023-04-11T09:56:56.545Z,100539.52
2023-04-11T10:00:56.623Z,100534.23
2023-04-11T10:04:53.772Z,100524.77
2023-04-11T10:08:56.019Z,100519.46
2023-04-11T10:12:55.244Z,100515.41
2023-04-11T10:16:57.790Z,100504.39
2023-04-11T10:20:56.014Z,100495.99
2023-04-11T10:24:56.770Z,100490.30
2023-04-11T10:28:53.557Z,100485.73
2023-04-11T10:32:54.515Z,100482.27
2023-04-11T10:36:56.983Z,100458.87
2023-04-11T10:40:57.833Z,100456.56
2023-04-11T10:44:55.671Z,100450.45
2023-04-11T10:48:50.936Z,100438.77
2023-04-11T10:52:51.862Z,100429.42
2023-04-11T10:56:52.790Z,100425.38
2023-04-11T11:00:50.245Z,100417.55
2023-04-11T11:04:51.742Z,100419.64
2023-04-11T11:08:49.594Z,100412.39
2023-04-11T11:12:49.114Z,100405.62
2023-04-11T11:16:46.955Z,100403.73
2023-04-11T11:20:49.319Z,100398.68
2023-04-11T11:24:45.884Z,100406.58
2023-04-11T11:28:48.509Z,100399.77
2023-04-11T11:32:49.695Z,100393.21
2023-04-11T11:36:51.587Z,100383.86
2023-04-11T11:40:48.795Z,100380.83
2023-04-11T11:44:49.964Z,100374.86
2023-04-11T11:50:16.544Z,100374.92
2023-04-11T11:54:18.212Z,100367.35
2023-04-11T11:58:16.944Z,100355.60
2023-04-11T12:02:17.614Z,100346.02
2023-04-11T12:06:15.055Z,100345.02
2023-04-11T12:10:15.556Z,100346.83
2023-04-11T12:14:11.924Z,100340.48
2023-04-11T12:18:10.969Z,100338.34
2023-04-11T12:22:08.389Z,100331.45
2023-04-11T12:26:09.192Z,100327.77
2023-04-11T12:30:06.341Z,100327.14
2023-04-11T12:34:07.516Z,100322.63
2023-04-11T12:38:08.149Z,100317.72
2023-04-11T12:42:11.990Z,100313.83
2023-04-11T12:46:15.079Z,100310.06
2023-04-11T12:50:18.045Z,100306.04
2023-04-11T12:54:17.260Z,100298.50
2023-04-11T12:58:21.653Z,100299.36
2023-04-11T13:02:22.004Z,100290.93
2023-04-11T13:06:26.160Z,100290.27
2023-04-11T13:10:26.011Z,100280.01
2023-04-11T13:14:29.244Z,100282.91
2023-04-11T13:18:28.362Z,100285.54
2023-04-11T13:22:32.930Z,100286.09
2023-04-11T13:26:33.757Z,100288.05
2023-04-11T13:30:37.290Z,100286.04
2023-04-11T13:34:38.222Z,100280.11
2023-04-11T13:38:41.747Z,100283.67
2023-04-11T13:42:45.121Z,100274.42
2023-04-11T13:46:47.519Z,100271.94
2023-04-11T13:50:53.326Z,100269.92
2023-04-11T13:54:57.027Z,100263.48
2023-04-11T13:58:57.447Z,100262.62
2023-04-11T14:03:01.904Z,100265.05
2023-04-11T14:07:02.374Z,100266.38
2023-04-11T14:11:02.986Z,100270.63
2023-04-11T14:15:06.293Z,100267.74
2023-04-11T14:19:06.159Z,100277.06
2023-04-11T14:23:09.792Z,100276.67
2023-04-11T14:27:08.021Z,100274.44
2023-04-11T14:31:11.857Z,100273.76
2023-04-11T14:35:13.289Z,100276.13
2023-04-11T14:39:17.541Z,100274.14
2023-04-11T14:43:14.181Z,100279.59
2023-04-11T14:47:14.677Z,100282.26
2023-04-11T14:51:11.055Z,100275.60
2023-04-11T14:55:12.651Z,100262.11
2023-04-11T14:59:15.996Z,100258.52
2023-04-11T15:03:17.279Z,100263.75
2023-04-11T15:07:15.468Z,100267.05
2023-04-11T15:11:17.534Z,100271.48
2023-04-11T15:15:15.882Z,100266.25
2023-04-11T15:19:17.499Z,100260.36
2023-04-11T15:23:15.329Z,100261.30
2023-04-11T15:27:16.540Z,100254.00
2023-04-11T15:31:13.944Z,100258.10
2023-04-11T15:35:14.766Z,100252.45
2023-04-11T15:39:12.257Z,100237.96
2023-04-11T15:43:12.665Z,100229.27
2023-04-11T15:47:10.811Z,100221.23
2023-04-11T15:51:11.701Z,100225.36
2023-04-11T15:55:08.398Z,100223.34
2023-04-11T15:59:10.513Z,100220.71
2023-04-11T16:03:08.867Z,100217.03
2023-04-11T16:07:09.738Z,100215.39
2023-04-11T16:11:06.717Z,100214.36
2023-04-11T16:15:07.882Z,100213.91
2023-04-11T16:19:06.471Z,100209.45
2023-04-11T16:23:07.197Z,100212.42
2023-04-11T16:27:04.428Z,100209.52
2023-04-11T16:31:09.564Z,100205.77
2023-04-11T16:35:06.346Z,100197.05
2023-04-11T16:39:04.211Z,100195.33
2023-04-11T16:43:06.028Z,100190.90
2023-04-11T16:47:02.853Z,100188.41
2023-04-11T16:51:03.911Z,100188.24
2023-04-11T16:55:00.052Z,100192.92
2023-04-11T16:58:47.445Z,100198.59
2023-04-11T17:02:34.986Z,100209.91
2023-04-11T17:06:46.093Z,100220.47
2023-04-11T17:10:40.862Z,100240.71
2023-04-11T17:14:41.619Z,100240.65
2023-04-11T17:18:39.768Z,100232.98
2023-04-11T17:22:49.668Z,100228.94
2023-04-11T17:26:46.810Z,100211.19
2023-04-11T17:30:45.589Z,100195.00
2023-04-11T17:34:42.504Z,100202.94
2023-04-11T17:38:41.556Z,100206.98
2023-04-11T17:42:28.482Z,100213.37
2023-04-11T17:46:22.467Z,100209.41
2023-04-11T17:50:09.594Z,100208.15
2023-04-11T17:54:02.621Z,100218.52
2023-04-11T17:57:57.547Z,100219.17
2023-04-11T18:01:50.432Z,100223.96
2023-04-11T18:05:47.641Z,100223.25
2023-04-11T18:09:49.262Z,100222.71
2023-04-11T18:13:49.273Z,100221.41
2023-04-11T18:17:52.432Z,100221.92
2023-04-11T18:21:50.750Z,100223.13
2023-04-11T18:25:51.343Z,100226.77
2023-04-11T18:29:38.466Z,100236.09
2023-04-11T18:33:32.137Z,100217.95
2023-04-11T18:37:23.403Z,100213.52
2023-04-11T18:41:18.660Z,100207.96
2023-04-11T18:45:18.714Z,100196.64
2023-04-11T18:49:20.472Z,100197.84
2023-04-11T18:53:18.117Z,100192.89
2023-04-11T18:57:19.889Z,100177.33
2023-04-11T19:01:17.668Z,100171.09
2023-04-11T19:05:20.638Z,100180.01
2023-04-11T19:09:18.201Z,100169.36
2023-04-11T19:13:23.250Z,100163.33
2023-04-11T19:17:11.552Z,100156.17
2023-04-11T19:21:04.909Z,100147.48
2023-04-11T19:24:52.026Z,100141.43
2023-04-11T19:28:45.343Z,100134.01
2023-04-11T19:32:58.663Z,100125.40
2023-04-11T19:36:59.773Z,100115.82
2023-04-11T19:40:56.997Z,100107.70
2023-04-11T19:44:58.208Z,100096.63
2023-04-11T19:48:56.549Z,100087.25
2023-04-11T19:52:56.361Z,100084.38
2023-04-11T19:56:56.924Z,100077.30
2023-04-11T20:00:56.270Z,100070.41
2023-04-11T20:04:44.607Z,100069.26
2023-04-11T20:08:31.925Z,100068.00
2023-04-11T20:12:19.536Z,100068.17
2023-04-11T20:16:06.705Z,100066.73
2023-04-11T20:20:01.188Z,100066.72
2023-04-11T20:24:06.224Z,100062.02
2023-04-11T20:28:04.548Z,100062.77
2023-04-11T20:32:05.992Z,100054.18
2023-04-11T20:36:07.896Z,100046.86
2023-04-11T20:40:09.897Z,100046.67
2023-04-11T20:44:07.529Z,100040.48
2023-04-11T20:48:08.949Z,100041.27
2023-04-11T20:51:55.791Z,100033.60
2023-04-11T20:55:42.554Z,100025.16
2023-04-11T20:59:36.952Z,100015.84
2023-04-11T21:03:34.746Z,100010.58
2023-04-11T21:07:32.354Z,99995.63
2023-04-11T21:11:33.572Z,99991.85
2023-04-11T21:15:35.330Z,99985.38
2023-04-11T21:19:36.563Z,99984.14
2023-04-11T21:23:38.987Z,99978.59
2023-04-11T21:27:40.483Z,99974.75
2023-04-11T21:31:35.566Z,99977.74
2023-04-11T21:35:22.354Z,99977.52
2023-04-11T21:39:09.082Z,99973.19
2023-04-11T21:42:56.081Z,99966.11
2023-04-11T21:46:49.098Z,99958.75
2023-04-11T21:50:42.147Z,99948.17
2023-04-11T21:54:37.316Z,99946.06
2023-04-11T21:58:38.389Z,99943.01
2023-04-11T22:02:36.102Z,99938.61
2023-04-11T22:06:37.318Z,99934.91
2023-04-11T22:10:44.802Z,99924.55
2023-04-11T22:14:53.336Z,99913.70
2023-04-11T22:18:51.009Z,99905.50
2023-04-11T22:22:52.124Z,99905.51
2023-04-11T22:26:39.157Z,99900.61
2023-04-11T22:30:26.232Z,99899.55
2023-04-11T22:34:13.094Z,99896.59
2023-04-11T22:38:00.326Z,99895.82
2023-04-11T22:41:46.886Z,99886.11
2023-04-11T22:45:40.186Z,99881.13
2023-04-11T22:49:35.645Z,99875.42
2023-04-11T22:53:29.233Z,99870.73
2023-04-11T22:57:27.773Z,99863.30
2023-04-11T23:01:31.926Z,99861.41
2023-04-11T23:05:29.819Z,99862.55
2023-04-11T23:09:31.476Z,99856.12
2023-04-11T23:13:31.335Z,99853.34
2023-04-11T23:17:35.185Z,99852.70
2023-04-11T23:21:39.611Z,99843.59
2023-04-11T23:25:26.735Z,99838.55
2023-04-11T23:29:13.514Z,99837.79
2023-04-11T23:33:00.283Z,99833.61
2023-04-11T23:36:48.392Z,99832.26
2023-04-11T23:40:35.375Z,99824.11
2023-04-11T23:44:22.320Z,99816.04
2023-04-11T23:48:11.616Z,99809.96
2023-04-11T23:51:58.832Z,99806.25
2023-04-11T23:55:45.631Z,99804.48
2023-04-11T23:59:38.998Z,99799.92
